createdAt,value
2019-03-04T00:02:25.598Z,8.50
2019-03-04T00:04:53.100Z,8.60
2019-03-04T00:07:20.599Z,8.50
2019-03-04T00:09:48.095Z,8.60
2019-03-04T00:12:15.553Z,8.60
2019-03-04T00:14:43.091Z,8.70
2019-03-04T00:17:10.542Z,8.80
2019-03-04T00:19:38.038Z,8.80
2019-03-04T00:22:05.705Z,8.80
2019-03-04T00:24:33.161Z,8.80
2019-03-04T00:27:00.604Z,8.70
2019-03-04T00:29:28.113Z,8.70
2019-03-04T00:31:55.571Z,8.60
2019-03-04T00:34:23.088Z,8.60
2019-03-04T00:36:50.610Z,8.60
2019-03-04T00:39:18.061Z,8.70
2019-03-04T00:41:45.536Z,8.80
2019-03-04T00:44:13.021Z,8.90
2019-03-04T00:46:40.478Z,8.90
2019-03-04T00:49:07.984Z,8.80
2019-03-04T00:51:35.466Z,8.90
2019-03-04T00:54:02.920Z,8.90
2019-03-04T00:56:30.390Z,8.90
2019-03-04T00:58:57.879Z,8.90
2019-03-04T01:01:25.390Z,8.90
2019-03-04T01:03:52.861Z,8.90
2019-03-04T01:06:20.360Z,8.80
2019-03-04T01:08:47.883Z,8.80
2019-03-04T01:11:15.359Z,8.70
2019-03-04T01:13:42.853Z,8.70
2019-03-04T01:16:10.327Z,8.70
2019-03-04T01:18:37.824Z,8.70
2019-03-04T01:21:05.315Z,8.70
2019-03-04T01:23:32.743Z,8.70
2019-03-04T01:26:00.250Z,8.60
2019-03-04T01:28:27.742Z,8.60
2019-03-04T01:30:55.198Z,8.50
2019-03-04T01:33:22.695Z,8.50
2019-03-04T01:35:50.146Z,8.40
2019-03-04T01:38:17.658Z,8.30
2019-03-04T01:40:45.127Z,8.30
2019-03-04T01:43:12.592Z,8.20
2019-03-04T01:45:40.084Z,8.20
2019-03-04T01:48:07.533Z,8.10
2019-03-04T01:50:35.010Z,8.10
2019-03-04T01:53:02.469Z,8.00
2019-03-04T01:55:29.966Z,8.00
2019-03-04T01:57:57.450Z,8.10
2019-03-04T02:00:24.888Z,8.10
2019-03-04T02:02:52.777Z,8.20
2019-03-04T02:05:20.331Z,8.20
2019-03-04T02:07:47.773Z,8.30
2019-03-04T02:10:16.650Z,8.30
2019-03-04T02:12:44.138Z,8.20
2019-03-04T02:15:13.422Z,8.20
2019-03-04T02:17:40.907Z,8.20
2019-03-04T02:20:09.557Z,8.20
2019-03-04T02:22:37.073Z,8.30
2019-03-04T02:25:05.686Z,8.30
2019-03-04T02:27:33.144Z,8.30
2019-03-04T02:30:00.756Z,8.40
2019-03-04T02:32:28.231Z,8.40
2019-03-04T02:34:55.734Z,8.50
2019-03-04T02:37:23.211Z,8.50
2019-03-04T02:39:50.745Z,8.60
2019-03-04T02:42:18.225Z,8.60
2019-03-04T02:44:46.407Z,8.60
2019-03-04T02:47:13.852Z,8.60
2019-03-04T02:49:41.360Z,8.60
2019-03-04T02:52:08.870Z,8.60
2019-03-04T02:54:36.323Z,8.50
2019-03-04T02:57:03.837Z,8.50
2019-03-04T02:59:31.293Z,8.40
2019-03-04T03:01:58.729Z,8.40
2019-03-04T03:04:26.546Z,8.40
2019-03-04T03:06:54.074Z,8.40
2019-03-04T03:09:21.529Z,8.40
2019-03-04T03:11:49.006Z,8.50
2019-03-04T03:14:16.491Z,8.70
2019-03-04T03:16:43.984Z,8.80
2019-03-04T03:19:11.427Z,8.80
2019-03-04T03:21:38.891Z,8.80
2019-03-04T03:24:06.391Z,8.80
2019-03-04T03:26:33.877Z,8.70
2019-03-04T03:29:01.353Z,8.60
2019-03-04T03:31:28.845Z,8.60
2019-03-04T03:33:56.353Z,8.60
2019-03-04T03:36:23.846Z,8.60
2019-03-04T03:38:51.332Z,8.40
2019-03-04T03:41:18.777Z,8.40
2019-03-04T03:43:46.264Z,8.30
2019-03-04T03:46:13.776Z,8.20
2019-03-04T03:48:41.250Z,8.20
2019-03-04T03:51:08.730Z,8.30
2019-03-04T03:53:36.200Z,8.30
2019-03-04T03:56:03.756Z,8.30
2019-03-04T03:58:31.223Z,8.20
2019-03-04T04:00:58.693Z,8.20
2019-03-04T04:03:26.152Z,8.10
2019-03-04T04:05:53.659Z,8.10
2019-03-04T04:08:21.168Z,8.10
2019-03-04T04:10:48.617Z,8.00
2019-03-04T04:13:16.080Z,8.00
2019-03-04T04:15:43.682Z,7.80
2019-03-04T04:18:11.158Z,7.60
2019-03-04T04:20:38.618Z,7.40
2019-03-04T04:23:06.127Z,7.20
2019-03-04T04:25:33.614Z,7.00
2019-03-04T04:28:02.261Z,6.90
2019-03-04T04:30:30.444Z,6.90
2019-03-04T04:32:57.955Z,6.80
2019-03-04T04:35:25.417Z,6.90
2019-03-04T04:37:52.939Z,7.10
2019-03-04T04:40:20.380Z,7.20
2019-03-04T04:42:47.834Z,7.30
2019-03-04T04:45:15.309Z,7.50
2019-03-04T04:47:42.770Z,7.50
2019-03-04T04:50:11.345Z,7.60
2019-03-04T04:52:38.888Z,7.60
2019-03-04T04:55:06.362Z,7.60
2019-03-04T04:57:33.857Z,7.60
2019-03-04T05:00:01.375Z,7.50
2019-03-04T05:02:29.058Z,7.40
2019-03-04T05:04:56.522Z,7.30
2019-03-04T05:07:24.123Z,7.10
2019-03-04T05:09:51.622Z,6.90
2019-03-04T05:12:19.076Z,6.80
2019-03-04T05:14:46.560Z,6.70
2019-03-04T05:17:14.046Z,6.60
2019-03-04T05:19:41.557Z,6.60
2019-03-04T05:22:09.003Z,6.60
2019-03-04T05:24:36.466Z,6.40
2019-03-04T05:27:03.958Z,6.40
2019-03-04T05:29:31.436Z,6.40
2019-03-04T05:31:58.972Z,6.30
2019-03-04T05:34:26.441Z,6.20
2019-03-04T05:36:53.921Z,6.10
2019-03-04T05:39:21.375Z,6.00
2019-03-04T05:41:48.863Z,5.90
2019-03-04T05:44:16.226Z,5.80
2019-03-04T05:46:43.711Z,5.60
2019-03-04T05:49:11.173Z,5.40
2019-03-04T05:51:38.653Z,5.20
2019-03-04T05:54:06.159Z,5.20
2019-03-04T05:56:33.737Z,5.00
2019-03-04T05:59:01.176Z,4.90
2019-03-04T06:01:33.272Z,4.70
2019-03-04T06:04:11.276Z,4.60
2019-03-04T06:07:01.540Z,4.50
2019-03-04T06:09:29.012Z,4.50
2019-03-04T06:11:56.455Z,4.30
2019-03-04T06:14:24.649Z,4.20
2019-03-04T06:16:52.105Z,4.20
2019-03-04T06:19:19.586Z,4.20
2019-03-04T06:21:47.083Z,4.20
2019-03-04T06:24:14.589Z,4.30
2019-03-04T06:26:42.074Z,4.30
2019-03-04T06:29:09.535Z,4.40
2019-03-04T06:31:37.039Z,4.50
2019-03-04T06:34:04.489Z,4.60
2019-03-04T06:36:31.984Z,4.70
2019-03-04T06:38:59.509Z,4.80
2019-03-04T06:41:26.986Z,4.90
2019-03-04T06:43:54.474Z,5.00
2019-03-04T06:46:21.942Z,5.10
2019-03-04T06:48:49.611Z,5.10
2019-03-04T06:51:25.762Z,5.20
2019-03-04T06:54:44.859Z,5.20
2019-03-04T06:57:15.332Z,5.20
2019-03-04T07:00:22.875Z,5.10
2019-03-04T07:02:50.409Z,5.10
2019-03-04T07:05:45.332Z,5.30
2019-03-04T07:09:00.476Z,5.50
2019-03-04T07:11:29.027Z,6.20
2019-03-04T07:13:56.561Z,7.00
2019-03-04T07:16:24.075Z,8.20
2019-03-04T07:18:51.537Z,9.40
2019-03-04T07:21:19.106Z,10.60
2019-03-04T07:23:46.550Z,11.30
2019-03-04T07:26:14.013Z,12.00
2019-03-04T07:28:41.558Z,12.60
2019-03-04T07:31:08.990Z,13.10
2019-03-04T07:33:36.443Z,13.10
2019-03-04T07:36:03.969Z,13.40
2019-03-04T07:38:42.718Z,13.30
2019-03-04T07:41:10.582Z,13.00
2019-03-04T07:43:38.057Z,13.10
2019-03-04T07:46:05.500Z,12.90
2019-03-04T07:48:32.998Z,12.80
2019-03-04T07:51:09.726Z,12.70
2019-03-04T07:53:46.001Z,12.50
2019-03-04T07:56:06.733Z,12.30
2019-03-04T07:58:34.212Z,12.20
2019-03-04T08:01:01.705Z,12.20
2019-03-04T08:03:29.188Z,12.60
2019-03-04T08:05:57.778Z,13.00
2019-03-04T08:08:25.681Z,13.40
2019-03-04T08:11:32.646Z,13.60
2019-03-04T08:14:01.099Z,13.70
2019-03-04T08:16:28.601Z,14.40
2019-03-04T08:18:56.206Z,15.40
2019-03-04T08:21:23.697Z,16.20
2019-03-04T08:23:51.201Z,15.90
2019-03-04T08:26:18.725Z,15.80
2019-03-04T08:28:46.193Z,15.50
2019-03-04T08:31:14.112Z,15.60
2019-03-04T08:33:41.581Z,16.10
2019-03-04T08:36:09.082Z,16.30
2019-03-04T08:38:36.631Z,16.20
2019-03-04T08:41:04.112Z,16.40
2019-03-04T08:43:31.631Z,17.30
2019-03-04T08:45:59.109Z,18.20
2019-03-04T08:48:26.586Z,18.90
2019-03-04T08:50:54.198Z,19.50
2019-03-04T08:53:21.654Z,20.30
2019-03-04T08:55:49.394Z,20.60
2019-03-04T08:58:16.888Z,20.70
2019-03-04T09:00:44.378Z,20.80
2019-03-04T09:03:11.919Z,20.00
2019-03-04T09:05:39.397Z,19.30
2019-03-04T09:08:06.860Z,18.30
2019-03-04T09:10:34.422Z,17.80
2019-03-04T09:13:01.876Z,17.60
2019-03-04T09:15:29.347Z,17.40
2019-03-04T09:17:56.852Z,17.20
2019-03-04T09:20:24.835Z,16.90
2019-03-04T09:22:52.863Z,15.90
2019-03-04T09:25:30.030Z,15.00
2019-03-04T09:27:52.747Z,14.60
2019-03-04T09:30:20.303Z,14.40
2019-03-04T09:32:47.883Z,14.60
2019-03-04T09:35:15.375Z,14.70
2019-03-04T09:37:42.871Z,14.60
2019-03-04T09:40:12.413Z,14.60
2019-03-04T09:42:40.226Z,15.00
2019-03-04T09:45:07.932Z,15.40
2019-03-04T09:47:35.713Z,15.50
2019-03-04T09:50:04.906Z,15.60
2019-03-04T09:52:32.401Z,15.30
2019-03-04T09:54:59.945Z,15.10
2019-03-04T09:57:27.427Z,15.10
2019-03-04T09:59:54.905Z,15.00
2019-03-04T10:02:29.735Z,14.80
2019-03-04T10:05:28.822Z,14.50
2019-03-04T10:08:09.951Z,14.20
2019-03-04T10:11:20.478Z,13.90
2019-03-04T10:14:38.597Z,13.70
2019-03-04T10:17:53.553Z,13.50
2019-03-04T10:20:55.382Z,13.40
2019-03-04T10:23:54.338Z,13.40
2019-03-04T10:27:08.259Z,13.30
2019-03-04T10:30:06.593Z,13.40
2019-03-04T10:33:03.573Z,13.40
2019-03-04T10:36:04.861Z,13.50
2019-03-04T10:39:04.090Z,13.50
2019-03-04T10:42:22.324Z,13.50
2019-03-04T10:45:33.693Z,13.50
2019-03-04T10:48:01.198Z,13.50
2019-03-04T10:50:28.683Z,13.40
2019-03-04T10:52:56.187Z,13.40
2019-03-04T10:55:23.670Z,13.40
2019-03-04T10:57:51.166Z,13.40
2019-03-04T11:00:18.756Z,13.30
2019-03-04T11:02:46.499Z,13.30
2019-03-04T11:05:14.072Z,13.20
2019-03-04T11:07:41.531Z,13.20
2019-03-04T11:10:09.157Z,13.00
2019-03-04T11:12:36.643Z,12.90
2019-03-04T11:15:05.811Z,13.00
2019-03-04T11:17:33.318Z,13.00
2019-03-04T11:20:00.790Z,12.90
2019-03-04T11:22:28.270Z,12.80
2019-03-04T11:24:55.778Z,12.50
2019-03-04T11:27:24.000Z,12.30
2019-03-04T11:29:51.486Z,12.10
2019-03-04T11:32:18.986Z,11.90
2019-03-04T11:34:46.455Z,12.00
2019-03-04T11:37:13.948Z,12.30
2019-03-04T11:40:00.034Z,12.20
2019-03-04T11:42:27.553Z,12.00
2019-03-04T11:44:55.012Z,11.90
2019-03-04T11:47:25.370Z,11.90
2019-03-04T11:49:53.529Z,11.90
2019-03-04T11:52:21.122Z,11.70
2019-03-04T11:54:48.690Z,11.70
2019-03-04T11:57:16.379Z,11.70
2019-03-04T11:59:43.834Z,11.70
2019-03-04T12:02:19.030Z,11.80
2019-03-04T12:04:46.551Z,11.90
2019-03-04T12:07:14.022Z,11.80
2019-03-04T12:09:41.655Z,11.80
2019-03-04T12:12:09.138Z,11.80
2019-03-04T12:14:36.713Z,11.70
2019-03-04T12:17:04.238Z,11.70
2019-03-04T12:19:31.700Z,11.70
2019-03-04T12:22:00.260Z,11.70
2019-03-04T12:24:27.750Z,11.70
2019-03-04T12:26:55.210Z,11.70
2019-03-04T12:29:22.783Z,11.70
2019-03-04T12:32:01.808Z,11.70
2019-03-04T12:34:29.505Z,11.70
2019-03-04T12:36:56.986Z,11.60
2019-03-04T12:39:24.478Z,11.60
2019-03-04T12:41:52.034Z,11.60
2019-03-04T12:44:19.518Z,11.50
2019-03-04T12:46:47.016Z,11.50
2019-03-04T12:49:14.549Z,11.40
2019-03-04T12:51:42.048Z,11.40
2019-03-04T12:54:09.556Z,11.30
2019-03-04T12:56:37.038Z,11.20
2019-03-04T12:59:04.521Z,11.10
2019-03-04T13:01:31.995Z,11.10
2019-03-04T13:03:59.483Z,11.00
2019-03-04T13:06:26.943Z,11.00
2019-03-04T13:08:54.496Z,11.00
2019-03-04T13:11:22.011Z,11.00
2019-03-04T13:13:49.617Z,10.90
2019-03-04T13:16:17.110Z,10.90
2019-03-04T13:18:44.607Z,10.90
2019-03-04T13:21:12.111Z,10.90
2019-03-04T13:23:39.613Z,10.80
2019-03-04T13:26:07.120Z,10.80
2019-03-04T13:28:34.738Z,10.70
2019-03-04T13:31:02.290Z,10.70
2019-03-04T13:33:29.793Z,10.70
2019-03-04T13:35:57.373Z,10.70
2019-03-04T13:38:24.852Z,10.70
2019-03-04T13:40:52.338Z,10.70
2019-03-04T13:43:19.860Z,10.60
2019-03-04T13:45:47.421Z,10.60
2019-03-04T13:48:15.011Z,10.60
2019-03-04T13:50:42.600Z,10.60
2019-03-04T13:53:10.163Z,10.50
2019-03-04T13:55:37.706Z,10.50
2019-03-04T13:58:05.302Z,10.40
2019-03-04T14:00:33.022Z,10.40
2019-03-04T14:03:00.559Z,10.30
2019-03-04T14:05:28.083Z,10.20
2019-03-04T14:07:55.568Z,10.20
2019-03-04T14:10:23.147Z,10.20
2019-03-04T14:12:50.618Z,10.10
2019-03-04T14:15:21.337Z,10.10
2019-03-04T14:17:48.921Z,10.10
2019-03-04T14:20:16.466Z,10.00
2019-03-04T14:22:43.998Z,10.00
2019-03-04T14:25:11.570Z,10.00
2019-03-04T14:27:39.059Z,10.00
2019-03-04T14:30:09.685Z,9.90
2019-03-04T14:32:37.154Z,9.90
2019-03-04T14:35:04.742Z,9.90
2019-03-04T14:37:32.209Z,9.90
2019-03-04T14:39:59.784Z,9.80
2019-03-04T14:42:27.265Z,9.80
2019-03-04T14:44:54.906Z,9.70
2019-03-04T14:47:22.396Z,9.70
2019-03-04T14:49:49.880Z,9.70
2019-03-04T14:52:17.368Z,9.60
2019-03-04T14:54:44.870Z,9.60
2019-03-04T14:57:13.415Z,9.60
2019-03-04T14:59:41.128Z,9.60
2019-03-04T15:02:08.603Z,9.60
2019-03-04T15:04:36.073Z,9.50
2019-03-04T15:07:03.625Z,9.50
2019-03-04T15:09:31.121Z,9.50
2019-03-04T15:11:58.593Z,9.40
2019-03-04T15:14:26.109Z,9.40
2019-03-04T15:17:02.730Z,9.40
2019-03-04T15:19:22.856Z,9.40
2019-03-04T15:21:50.362Z,9.40
2019-03-04T15:24:17.844Z,9.30
2019-03-04T15:26:47.107Z,9.30
2019-03-04T15:29:14.696Z,9.30
2019-03-04T15:31:42.156Z,9.30
2019-03-04T15:34:09.679Z,9.30
2019-03-04T15:36:37.129Z,9.30
2019-03-04T15:39:11.361Z,9.30
2019-03-04T15:41:40.459Z,9.30
2019-03-04T15:55:49.761Z,9.10
2019-03-04T16:00:29.589Z,9.10
2019-03-04T16:01:22.131Z,9.00
2019-03-04T16:03:49.605Z,9.00
2019-03-04T16:06:17.130Z,9.00
2019-03-04T16:08:44.632Z,8.90
2019-03-04T16:11:12.101Z,9.00
2019-03-04T16:13:39.668Z,9.10
2019-03-04T16:16:07.122Z,9.10
2019-03-04T16:18:34.655Z,9.20
2019-03-04T16:21:02.149Z,9.20
2019-03-04T16:23:29.650Z,9.20
2019-03-04T16:25:57.158Z,9.30
2019-03-04T16:28:26.646Z,9.30
2019-03-04T16:30:54.118Z,9.30
2019-03-04T16:33:21.969Z,9.30
2019-03-04T16:35:49.533Z,9.30
2019-03-04T16:38:17.017Z,9.30
2019-03-04T16:40:44.714Z,9.20
2019-03-04T16:43:12.234Z,9.30
2019-03-04T16:45:39.874Z,9.20
2019-03-04T16:48:07.474Z,9.20
2019-03-04T16:50:35.113Z,9.20
2019-03-04T16:53:02.637Z,9.20
2019-03-04T16:55:30.120Z,9.20
2019-03-04T16:57:57.621Z,9.20
2019-03-04T17:00:25.180Z,9.20
2019-03-04T17:02:53.022Z,9.20
2019-03-04T17:05:20.632Z,9.20
2019-03-04T17:07:48.092Z,9.20
2019-03-04T17:10:16.716Z,9.10
2019-03-04T17:12:44.213Z,9.20
2019-03-04T17:15:14.138Z,9.10
2019-03-04T17:17:41.590Z,9.20
2019-03-04T17:20:10.207Z,9.20
2019-03-04T17:22:37.693Z,9.20
2019-03-04T17:25:05.638Z,9.20
2019-03-04T17:27:33.109Z,9.20
2019-03-04T17:30:00.912Z,9.20
2019-03-04T17:32:28.427Z,9.10
2019-03-04T17:34:55.909Z,9.00
2019-03-04T17:37:23.400Z,9.00
2019-03-04T17:39:52.285Z,9.00
2019-03-04T17:42:39.630Z,8.90
2019-03-04T17:48:55.331Z,8.80
2019-03-04T17:51:22.917Z,8.80
2019-03-04T17:59:07.995Z,9.00
2019-03-04T18:01:35.472Z,9.10
2019-03-04T18:04:02.949Z,9.30
2019-03-04T18:06:30.478Z,9.30
2019-03-04T18:08:58.265Z,9.30
2019-03-04T18:11:25.807Z,9.40
2019-03-04T18:13:53.505Z,9.40
2019-03-04T18:16:21.015Z,9.40
2019-03-04T18:18:48.515Z,9.20
2019-03-04T18:21:16.026Z,9.00
2019-03-04T18:23:43.753Z,8.60
2019-03-04T18:26:24.019Z,8.30
2019-03-04T18:29:02.291Z,7.60
2019-03-04T18:32:02.581Z,7.30
2019-03-04T18:34:50.470Z,7.20
2019-03-04T18:38:09.360Z,7.10
2019-03-04T18:40:49.984Z,7.10
2019-03-04T18:43:54.004Z,7.10
2019-03-04T18:46:58.010Z,7.00
2019-03-04T18:49:25.542Z,7.00
2019-03-04T18:51:53.060Z,7.00
2019-03-04T19:05:17.135Z,6.70
2019-03-04T19:08:27.851Z,6.70
2019-03-04T19:10:55.368Z,6.60
2019-03-04T19:13:22.831Z,6.50
2019-03-04T19:15:50.383Z,6.40
2019-03-04T19:18:17.878Z,6.30
2019-03-04T19:20:45.479Z,6.30
2019-03-04T19:23:12.962Z,6.30
2019-03-04T19:25:40.508Z,6.20
2019-03-04T19:28:07.977Z,6.20
2019-03-04T19:30:35.647Z,6.20
2019-03-04T19:33:03.246Z,6.10
2019-03-04T19:35:30.783Z,6.10
2019-03-04T19:37:58.325Z,6.10
2019-03-04T19:40:25.798Z,6.00
2019-03-04T19:42:53.360Z,6.00
2019-03-04T19:45:20.917Z,6.00
2019-03-04T19:47:48.467Z,5.90
2019-03-04T19:50:15.952Z,5.90
2019-03-04T19:52:43.521Z,5.90
2019-03-04T19:55:12.625Z,5.80
2019-03-04T19:57:40.416Z,5.70
2019-03-04T20:00:10.367Z,5.70
2019-03-04T20:02:37.951Z,5.60
2019-03-04T20:05:05.608Z,5.50
2019-03-04T20:07:33.277Z,5.50
2019-03-04T20:10:00.924Z,5.40
2019-03-04T20:12:28.387Z,5.40
2019-03-04T20:14:55.912Z,5.40
2019-03-04T20:17:23.409Z,5.40
2019-03-04T20:19:51.027Z,5.40
2019-03-04T20:22:18.527Z,5.40
2019-03-04T20:24:46.136Z,5.30
2019-03-04T20:27:13.711Z,5.30
2019-03-04T20:29:41.183Z,5.30
2019-03-04T20:32:08.706Z,5.20
2019-03-04T20:34:36.233Z,5.20
2019-03-04T20:37:03.714Z,5.10
2019-03-04T20:39:31.435Z,5.10
2019-03-04T20:42:00.688Z,5.00
2019-03-04T20:44:28.210Z,4.90
2019-03-04T20:46:55.744Z,4.90
2019-03-04T20:49:23.287Z,4.80
2019-03-04T20:51:50.794Z,4.70
2019-03-04T20:54:18.400Z,4.60
2019-03-04T20:56:45.900Z,4.60
2019-03-04T20:59:13.416Z,4.70
2019-03-04T21:01:40.946Z,4.70
2019-03-04T21:04:08.608Z,4.70
2019-03-04T21:06:36.173Z,4.60
2019-03-04T21:09:05.462Z,4.50
2019-03-04T21:11:33.061Z,4.60
2019-03-04T21:14:00.584Z,4.60
2019-03-04T21:16:28.068Z,4.60
2019-03-04T21:18:55.559Z,4.60
2019-03-04T21:21:23.089Z,4.70
2019-03-04T21:23:50.703Z,4.80
2019-03-04T21:26:24.463Z,4.80
2019-03-04T21:29:40.219Z,4.90
2019-03-04T21:33:04.722Z,4.90
2019-03-04T21:36:18.094Z,4.90
2019-03-04T21:38:45.716Z,5.00
2019-03-04T21:41:41.506Z,5.00
2019-03-04T21:44:29.779Z,5.10
2019-03-04T21:47:05.629Z,5.10
2019-03-04T21:49:37.132Z,5.20
2019-03-04T21:52:36.810Z,5.20
2019-03-04T21:55:08.562Z,5.20
2019-03-04T21:57:43.009Z,5.20
2019-03-04T22:00:15.808Z,5.20
2019-03-04T22:02:53.063Z,5.20
2019-03-04T22:05:20.550Z,5.20
2019-03-04T22:07:48.616Z,5.30
2019-03-04T22:10:16.457Z,5.30
2019-03-04T22:12:44.650Z,5.40
2019-03-04T22:15:12.378Z,5.40
2019-03-04T22:17:39.845Z,5.40
2019-03-04T22:20:08.365Z,5.40
2019-03-04T22:22:35.909Z,5.40
2019-03-04T22:25:03.697Z,5.40
2019-03-04T22:27:31.210Z,5.40
2019-03-04T22:29:58.701Z,5.40
2019-03-04T22:32:26.179Z,5.40
2019-03-04T22:34:53.710Z,5.40
2019-03-04T22:37:24.234Z,5.40
2019-03-04T22:39:51.782Z,5.30
2019-03-04T22:42:19.247Z,5.30
2019-03-04T22:44:47.003Z,5.30
2019-03-04T22:47:14.481Z,5.40
2019-03-04T22:49:42.026Z,5.40
2019-03-04T22:52:09.801Z,5.40
2019-03-04T22:54:37.269Z,5.40
2019-03-04T22:57:04.859Z,5.40
2019-03-04T22:59:32.359Z,5.40
2019-03-04T23:02:01.911Z,5.30
2019-03-04T23:05:05.222Z,5.10
2019-03-04T23:07:38.310Z,5.10
2019-03-04T23:10:35.899Z,5.00
2019-03-04T23:13:33.553Z,4.90
2019-03-04T23:16:02.115Z,4.80
2019-03-04T23:18:29.567Z,4.80
2019-03-04T23:20:57.064Z,4.80
2019-03-04T23:23:24.720Z,4.80
2019-03-04T23:25:52.224Z,4.80
2019-03-04T23:28:19.749Z,4.80
2019-03-04T23:30:47.201Z,4.80
2019-03-04T23:33:14.711Z,4.80
2019-03-04T23:35:42.193Z,4.80
2019-03-04T23:38:10.064Z,4.80
2019-03-04T23:40:37.545Z,4.80
2019-03-04T23:43:05.017Z,4.80
2019-03-04T23:45:32.530Z,4.80
2019-03-04T23:48:00.039Z,4.80
2019-03-04T23:50:27.565Z,4.80
2019-03-04T23:52:55.121Z,4.80
2019-03-04T23:55:22.590Z,4.80
2019-03-04T23:57:50.224Z,4.80
